createdAt,value
2023-01-09T00:02:50.595Z,51.70
2023-01-09T00:07:55.642Z,51.80
2023-01-09T00:12:59.017Z,51.84
2023-01-09T00:18:02.561Z,52.63
2023-01-09T00:23:07.427Z,52.00
2023-01-09T00:28:11.218Z,52.12
2023-01-09T00:33:14.393Z,52.23
2023-01-09T00:38:19.345Z,52.78
2023-01-09T00:43:25.588Z,52.69
2023-01-09T00:48:30.063Z,52.71
2023-01-09T00:53:35.013Z,53.31
2023-01-09T00:58:39.213Z,53.07
2023-01-09T01:03:42.694Z,53.62
2023-01-09T01:08:47.883Z,53.61
2023-01-09T01:13:51.684Z,53.02
2023-01-09T01:18:55.055Z,54.03
2023-01-09T01:23:59.867Z,53.97
2023-01-09T01:29:03.525Z,53.39
2023-01-09T01:34:07.011Z,53.50
2023-01-09T01:39:12.044Z,53.72
2023-01-09T01:44:52.555Z,54.69
2023-01-09T01:49:56.431Z,54.37
2023-01-09T01:55:00.967Z,55.54
2023-01-09T02:00:06.337Z,54.27
2023-01-09T02:05:10.432Z,53.80
2023-01-09T02:10:17.057Z,53.97
2023-01-09T02:15:21.998Z,53.64
2023-01-09T02:20:47.539Z,53.96
2023-01-09T02:26:17.566Z,54.55
2023-01-09T02:31:26.736Z,55.60
2023-01-09T02:36:35.120Z,55.02
2023-01-09T02:41:46.360Z,55.66
2023-01-09T02:47:02.142Z,56.16
2023-01-09T02:52:28.342Z,55.65
2023-01-09T02:57:48.564Z,56.07
2023-01-09T03:02:57.864Z,55.72
2023-01-09T03:08:06.316Z,55.61
2023-01-09T03:13:14.334Z,56.10
2023-01-09T03:18:23.252Z,54.84
2023-01-09T03:23:26.674Z,55.34
2023-01-09T03:28:32.880Z,54.37
2023-01-09T03:33:37.664Z,54.49
2023-01-09T03:38:41.746Z,54.74
2023-01-09T03:43:45.389Z,54.62
2023-01-09T03:48:50.419Z,54.49
2023-01-09T03:53:53.772Z,54.00
2023-01-09T03:58:57.364Z,55.57
2023-01-09T04:04:02.340Z,54.71
2023-01-09T04:09:06.157Z,55.65
2023-01-09T04:14:09.553Z,55.36
2023-01-09T04:19:14.545Z,55.58
2023-01-09T04:24:18.103Z,55.13
2023-01-09T04:29:21.769Z,54.58
2023-01-09T04:34:27.803Z,54.48
2023-01-09T04:39:31.367Z,54.56
2023-01-09T04:44:34.857Z,54.73
2023-01-09T04:49:39.568Z,54.85
2023-01-09T04:54:42.946Z,54.71
2023-01-09T04:59:46.654Z,56.18
2023-01-09T05:04:51.188Z,56.43
2023-01-09T05:09:54.886Z,55.46
2023-01-09T05:14:59.052Z,54.82
2023-01-09T05:20:03.730Z,54.91
2023-01-09T05:25:08.125Z,55.42
2023-01-09T05:30:14.360Z,55.17
2023-01-09T05:35:20.407Z,55.06
2023-01-09T05:40:29.177Z,55.87
2023-01-09T05:45:35.917Z,55.04
2023-01-09T05:50:43.376Z,55.28
2023-01-09T05:55:47.003Z,54.44
2023-01-09T06:00:50.665Z,54.83
2023-01-09T06:05:55.346Z,54.29
2023-01-09T06:10:58.984Z,54.67
2023-01-09T06:16:02.514Z,54.64
2023-01-09T06:21:07.939Z,55.86
2023-01-09T06:26:11.478Z,56.49
2023-01-09T06:31:15.327Z,55.50
2023-01-09T06:36:22.462Z,55.53
2023-01-09T06:41:26.309Z,55.36
2023-01-09T06:46:29.946Z,54.49
2023-01-09T06:51:34.808Z,55.31
2023-01-09T06:56:38.160Z,55.06
2023-01-09T07:01:42.029Z,54.45
2023-01-09T07:06:48.960Z,55.14
2023-01-09T07:11:52.530Z,54.21
2023-01-09T07:16:56.117Z,54.41
2023-01-09T07:22:00.991Z,53.93
2023-01-09T07:27:04.713Z,53.84
2023-01-09T07:32:08.189Z,53.17
2023-01-09T07:37:13.114Z,53.66
2023-01-09T07:42:16.613Z,52.85
2023-01-09T07:47:19.995Z,52.12
2023-01-09T07:52:24.814Z,51.84
2023-01-09T07:57:30.232Z,52.03
2023-01-09T08:02:33.730Z,52.42
2023-01-09T08:07:38.532Z,51.87
2023-01-09T08:12:44.800Z,51.76
2023-01-09T08:17:48.729Z,50.94
2023-01-09T08:22:54.521Z,51.75
2023-01-09T08:27:58.168Z,49.76
2023-01-09T08:33:01.681Z,49.54
2023-01-09T08:38:06.805Z,49.08
2023-01-09T08:43:31.107Z,50.08
2023-01-09T08:48:34.621Z,48.67
2023-01-09T08:53:39.456Z,48.88
2023-01-09T08:58:42.816Z,48.95
2023-01-09T09:03:47.618Z,49.14
2023-01-09T09:08:52.527Z,49.93
2023-01-09T09:13:55.877Z,49.84
2023-01-09T09:18:59.533Z,49.16
2023-01-09T09:24:04.345Z,48.53
2023-01-09T09:29:07.996Z,47.32
2023-01-09T09:34:13.068Z,46.93
2023-01-09T09:39:17.844Z,47.08
2023-01-09T09:44:53.298Z,46.89
2023-01-09T09:50:06.458Z,48.57
2023-01-09T09:55:18.998Z,48.71
2023-01-09T10:00:25.237Z,47.82
2023-01-09T10:05:32.387Z,47.76
2023-01-09T10:10:45.829Z,48.00
2023-01-09T10:15:57.997Z,47.24
2023-01-09T10:21:08.079Z,48.09
2023-01-09T10:26:22.584Z,48.78
2023-01-09T10:31:33.554Z,48.54
2023-01-09T10:37:06.854Z,48.37
2023-01-09T10:42:20.161Z,49.18
2023-01-09T10:47:27.950Z,49.17
2023-01-09T10:52:37.243Z,50.51
2023-01-09T10:57:45.043Z,50.08
2023-01-09T11:02:49.349Z,50.69
2023-01-09T11:07:57.061Z,51.40
2023-01-09T11:13:16.366Z,51.64
2023-01-09T11:18:24.601Z,52.01
2023-01-09T11:23:32.927Z,51.71
2023-01-09T11:28:37.809Z,51.46
2023-01-09T11:33:51.850Z,51.82
2023-01-09T11:38:58.024Z,51.59
2023-01-09T11:44:05.825Z,51.46
2023-01-09T11:49:23.925Z,51.12
2023-01-09T11:54:30.187Z,51.93
2023-01-09T11:59:35.129Z,51.92
2023-01-09T12:04:44.714Z,52.37
2023-01-09T12:09:56.248Z,53.25
2023-01-09T12:15:19.160Z,52.44
2023-01-09T12:20:52.144Z,54.08
2023-01-09T12:26:05.053Z,53.67
2023-01-09T12:31:23.892Z,54.13
2023-01-09T12:36:34.508Z,53.64
2023-01-09T12:41:55.362Z,54.12
2023-01-09T12:47:16.162Z,54.67
2023-01-09T12:52:25.986Z,53.80
2023-01-09T12:57:35.319Z,53.73
2023-01-09T13:02:46.544Z,55.02
2023-01-09T13:07:55.192Z,55.42
2023-01-09T13:13:00.244Z,55.43
2023-01-09T13:18:12.371Z,54.78
2023-01-09T13:23:26.946Z,55.69
2023-01-09T13:28:36.074Z,56.00
2023-01-09T13:33:44.387Z,54.68
2023-01-09T13:38:51.603Z,55.96
2023-01-09T13:44:02.018Z,55.75
2023-01-09T13:49:09.188Z,54.94
2023-01-09T13:54:12.562Z,55.87
2023-01-09T13:59:29.151Z,54.76
2023-01-09T14:04:44.980Z,55.30
2023-01-09T14:09:53.008Z,55.52
2023-01-09T14:14:59.567Z,56.13
2023-01-09T14:20:08.617Z,56.04
2023-01-09T14:30:34.999Z,57.50
2023-01-09T14:35:49.610Z,56.59
2023-01-09T14:41:00.530Z,56.17
2023-01-09T14:46:12.669Z,56.38
2023-01-09T14:51:19.354Z,56.51
2023-01-09T14:56:29.228Z,58.23
2023-01-09T15:01:34.793Z,58.13
2023-01-09T15:06:44.529Z,57.47
2023-01-09T15:11:48.685Z,57.18
2023-01-09T15:16:52.468Z,58.36
2023-01-09T15:22:03.670Z,56.98
2023-01-09T15:27:19.400Z,58.48
2023-01-09T15:32:27.352Z,57.42
2023-01-09T15:37:38.012Z,57.65
2023-01-09T15:42:58.439Z,58.43
2023-01-09T15:48:17.837Z,58.72
2023-01-09T15:53:24.079Z,57.22
2023-01-09T15:58:29.843Z,58.43
2023-01-09T16:03:36.679Z,58.54
2023-01-09T16:08:45.092Z,57.19
2023-01-09T16:13:48.721Z,57.99
2023-01-09T16:18:53.875Z,58.88
2023-01-09T16:24:01.081Z,58.33
2023-01-09T16:29:35.042Z,58.63
2023-01-09T16:34:44.340Z,58.08
2023-01-09T16:40:24.482Z,57.66
2023-01-09T16:45:28.776Z,58.53
2023-01-09T16:50:32.252Z,57.98
2023-01-09T16:55:37.016Z,58.91
2023-01-09T17:00:40.693Z,58.35
2023-01-09T17:05:44.876Z,58.19
2023-01-09T17:10:49.946Z,58.14
2023-01-09T17:15:54.247Z,58.85
2023-01-09T17:20:59.702Z,57.81
2023-01-09T17:26:22.097Z,58.24
2023-01-09T17:31:25.694Z,58.00
2023-01-09T17:36:32.443Z,57.46
2023-01-09T17:41:37.499Z,58.01
2023-01-09T17:46:42.644Z,58.08
2023-01-09T17:51:46.313Z,58.28
2023-01-09T17:56:52.106Z,58.87
2023-01-09T18:01:55.770Z,57.96
2023-01-09T18:06:59.511Z,58.79
2023-01-09T18:12:04.244Z,57.78
2023-01-09T18:17:07.885Z,57.45
2023-01-09T18:22:11.188Z,58.83
2023-01-09T18:27:16.179Z,57.93
2023-01-09T18:32:19.542Z,58.55
2023-01-09T18:37:23.171Z,57.97
2023-01-09T18:42:27.678Z,57.98
2023-01-09T18:47:31.303Z,57.85
2023-01-09T18:52:34.778Z,57.51
2023-01-09T18:57:39.863Z,57.97
2023-01-09T19:02:43.631Z,58.60
2023-01-09T19:07:47.234Z,59.06
2023-01-09T19:12:51.843Z,59.34
2023-01-09T19:17:55.441Z,58.70
2023-01-09T19:22:58.468Z,59.30
2023-01-09T19:28:03.618Z,59.34
2023-01-09T19:33:07.417Z,60.19
2023-01-09T19:38:11.104Z,59.66
2023-01-09T19:43:25.969Z,58.72
2023-01-09T19:48:30.918Z,58.17
2023-01-09T19:53:35.579Z,57.88
2023-01-09T19:58:40.854Z,58.68
2023-01-09T20:03:45.676Z,59.66
2023-01-09T20:08:53.625Z,58.70
2023-01-09T20:13:58.833Z,58.75
2023-01-09T20:19:06.716Z,59.22
2023-01-09T20:24:12.401Z,59.11
2023-01-09T20:29:17.470Z,59.58
2023-01-09T20:34:20.899Z,59.51
2023-01-09T20:39:24.536Z,58.96
2023-01-09T20:44:29.446Z,59.14
2023-01-09T20:49:32.797Z,59.35
2023-01-09T20:54:36.101Z,59.06
2023-01-09T20:59:41.275Z,59.51
2023-01-09T21:04:44.834Z,59.11
2023-01-09T21:09:48.167Z,58.56
2023-01-09T21:14:53.064Z,59.36
2023-01-09T21:19:56.964Z,58.71
2023-01-09T21:25:00.449Z,58.46
2023-01-09T21:30:06.742Z,58.44
2023-01-09T21:35:10.600Z,58.86
2023-01-09T21:40:16.996Z,59.02
2023-01-09T21:45:39.223Z,59.51
2023-01-09T21:50:42.986Z,58.38
2023-01-09T21:55:46.429Z,58.78
2023-01-09T22:00:52.341Z,58.69
2023-01-09T22:05:55.802Z,57.83
2023-01-09T22:11:01.472Z,58.32
2023-01-09T22:16:08.211Z,57.91
2023-01-09T22:21:11.879Z,57.70
2023-01-09T22:26:15.743Z,57.73
2023-01-09T22:31:22.503Z,58.68
2023-01-09T22:36:27.353Z,58.81
2023-01-09T22:41:31.850Z,59.42
2023-01-09T22:46:36.517Z,58.42
2023-01-09T22:51:39.908Z,58.69
2023-01-09T22:56:43.270Z,58.24
2023-01-09T23:01:48.028Z,58.03
2023-01-09T23:06:51.753Z,58.08
2023-01-09T23:12:04.712Z,57.80
2023-01-09T23:17:11.769Z,57.04
2023-01-09T23:22:15.654Z,57.14
2023-01-09T23:27:19.273Z,56.95
2023-01-09T23:32:23.709Z,57.14
2023-01-09T23:37:27.315Z,56.85
2023-01-09T23:42:47.642Z,56.08
2023-01-09T23:47:52.737Z,56.79
2023-01-09T23:52:56.210Z,56.37
2023-01-09T23:57:59.793Z,57.10
